Time;durP1;ratioP1;P1;durP2;ratioP2;P2;SDS_P1;SDS_P2;PMS_P1;PMS_P2;Temp;Humidity;BMP_temperature;BMP_pressure;BME280_temperature;BME280_humidity;BME280_pressure;Samples;Min_cycle;Max_cycle;Signal;HPM_P1;HPM_P2
2020/12/10 00:01:51;;;;;;;103.80;35.13;;;;;;;;;;5040414;28;20201;-71
2020/12/10 00:04:17;;;;;;;123.20;38.33;;;;;;;;;;5049354;28;20236;-71
2020/12/10 00:06:43;;;;;;;116.47;37.40;;;;;;;;;;5038313;28;20706;-72
2020/12/10 00:09:08;;;;;;;106.60;35.83;;;;;;;;;;5045616;28;20189;-72
2020/12/10 00:11:34;;;;;;;118.23;38.27;;;;;;;;;;5036180;28;20198;-71
2020/12/10 00:14:01;;;;;;;102.30;36.23;;;;;;;;;;5046259;28;20193;-72
2020/12/10 00:16:26;;;;;;;105.23;36.50;;;;;;;;;;5039084;28;20200;-72
2020/12/10 00:18:52;;;;;;;106.27;38.40;;;;;;;;;;5049337;28;20591;-71
2020/12/10 00:21:21;;;;;;;114.10;39.00;;;;;;;;;;5040131;28;20193;-71
2020/12/10 00:23:47;;;;;;;112.90;36.93;;;;;;;;;;5048070;28;20240;-71
2020/12/10 00:26:13;;;;;;;118.87;37.27;;;;;;;;;;5040060;28;20680;-72
2020/12/10 00:28:39;;;;;;;118.63;39.50;;;;;;;;;;5047323;28;20193;-72
2020/12/10 00:31:04;;;;;;;107.33;35.47;;;;;;;;;;5039143;28;20208;-72
2020/12/10 00:33:30;;;;;;;115.77;36.80;;;;;;;;;;5046791;28;20227;-72
2020/12/10 00:35:55;;;;;;;106.23;34.53;;;;;;;;;;5047114;28;20178;-72
2020/12/10 00:38:21;;;;;;;124.20;35.80;;;;;;;;;;5040071;28;20272;-72
2020/12/10 00:40:46;;;;;;;127.97;36.13;;;;;;;;;;5046344;28;20555;-72
2020/12/10 00:43:12;;;;;;;107.90;33.77;;;;;;;;;;5056134;28;20673;-71
2020/12/10 00:45:37;;;;;;;110.03;35.10;;;;;;;;;;5046643;28;20344;-72
2020/12/10 00:48:02;;;;;;;122.20;36.93;;;;;;;;;;5040949;28;20573;-72
2020/12/10 00:50:28;;;;;;;111.43;32.33;;;;;;;;;;5044148;28;20185;-72
2020/12/10 00:52:53;;;;;;;101.80;33.77;;;;;;;;;;5040395;28;20185;-72
2020/12/10 00:55:18;;;;;;;103.10;35.53;;;;;;;;;;5045896;28;20182;-72
2020/12/10 00:57:43;;;;;;;116.63;34.73;;;;;;;;;;5039719;28;20558;-72
2020/12/10 01:00:10;;;;;;;115.57;35.67;;;;;;;;;;5045550;28;20185;-71
2020/12/10 01:02:35;;;;;;;126.70;36.87;;;;;;;;;;5040541;28;20874;-71
2020/12/10 01:05:01;;;;;;;109.07;36.80;;;;;;;;;;5042315;28;20238;-72
2020/12/10 01:07:26;;;;;;;132.97;37.53;;;;;;;;;;5051002;28;20255;-72
2020/12/10 01:09:51;;;;;;;117.20;37.27;;;;;;;;;;5037906;28;20256;-72
2020/12/10 01:12:17;;;;;;;118.13;36.03;;;;;;;;;;5049876;28;20181;-72
2020/12/10 01:14:42;;;;;;;111.80;37.17;;;;;;;;;;5035262;28;20189;-72
2020/12/10 01:17:07;;;;;;;123.33;37.80;;;;;;;;;;5048662;28;20193;-72
2020/12/10 01:19:33;;;;;;;118.47;37.50;;;;;;;;;;5038605;28;20193;-72
2020/12/10 01:21:58;;;;;;;109.67;35.53;;;;;;;;;;5046702;28;20189;-72
2020/12/10 01:24:23;;;;;;;126.63;37.57;;;;;;;;;;5041351;28;20652;-72
2020/12/10 01:26:49;;;;;;;109.20;36.13;;;;;;;;;;5049054;28;20268;-72
2020/12/10 01:29:14;;;;;;;115.37;35.53;;;;;;;;;;5039218;28;20228;-72
2020/12/10 01:31:40;;;;;;;116.60;37.40;;;;;;;;;;5046255;28;20278;-72
2020/12/10 01:34:05;;;;;;;104.70;35.20;;;;;;;;;;5038665;28;20240;-72
2020/12/10 01:36:31;;;;;;;114.03;37.37;;;;;;;;;;5049725;28;20217;-72
2020/12/10 01:38:57;;;;;;;109.27;36.63;;;;;;;;;;5044255;28;20274;-72
2020/12/10 01:41:31;;;;;;;101.20;35.37;;;;;;;;;;5042373;28;20221;-72
2020/12/10 01:44:08;;;;;;;102.63;36.43;;;;;;;;;;5046010;28;20228;-72
2020/12/10 01:46:35;;;;;;;97.63;36.33;;;;;;;;;;5043648;28;20620;-72
2020/12/10 01:49:06;;;;;;;109.53;36.50;;;;;;;;;;5050919;28;20181;-72
2020/12/10 01:51:32;;;;;;;113.73;37.67;;;;;;;;;;5044177;28;20199;-72
2020/12/10 01:54:02;;;;;;;109.33;39.03;;;;;;;;;;5050112;28;20182;-72
2020/12/10 01:56:27;;;;;;;108.03;36.23;;;;;;;;;;5043455;28;20216;-72
2020/12/10 01:58:54;;;;;;;108.87;38.53;;;;;;;;;;5041938;28;20621;-72
2020/12/10 02:01:20;;;;;;;114.90;38.07;;;;;;;;;;5041419;28;20185;-72
2020/12/10 02:03:45;;;;;;;112.43;38.30;;;;;;;;;;5049217;28;20208;-72
2020/12/10 02:06:11;;;;;;;113.47;38.27;;;;;;;;;;5044758;28;20193;-72
2020/12/10 02:08:40;;;;;;;113.97;38.90;;;;;;;;;;5050251;28;20208;-72
2020/12/10 02:11:12;;;;;;;122.43;39.60;;;;;;;;;;5046006;28;20213;-72
2020/12/10 02:13:38;;;;;;;122.87;38.27;;;;;;;;;;5049606;28;20174;-72
2020/12/10 02:16:04;;;;;;;116.90;39.60;;;;;;;;;;5051551;28;20263;-72
2020/12/10 02:18:30;;;;;;;119.87;39.53;;;;;;;;;;5041672;28;20201;-72
2020/12/10 02:20:55;;;;;;;117.37;39.03;;;;;;;;;;5052804;28;20259;-72
2020/12/10 02:23:21;;;;;;;120.43;38.37;;;;;;;;;;5037976;28;20210;-72
2020/12/10 02:25:46;;;;;;;119.37;39.93;;;;;;;;;;5049838;28;20214;-72
2020/12/10 02:28:14;;;;;;;114.60;37.47;;;;;;;;;;5043611;28;20229;-72
2020/12/10 02:30:41;;;;;;;116.30;38.63;;;;;;;;;;5049575;28;20652;-72
2020/12/10 02:33:08;;;;;;;124.47;39.53;;;;;;;;;;5045186;28;20281;-72
2020/12/10 02:35:35;;;;;;;115.67;38.07;;;;;;;;;;5062693;28;20681;-71
2020/12/10 02:38:03;;;;;;;113.87;36.87;;;;;;;;;;5042921;28;20246;-72
2020/12/10 02:40:30;;;;;;;108.70;37.40;;;;;;;;;;5048866;28;20204;-72
2020/12/10 02:42:56;;;;;;;115.20;38.07;;;;;;;;;;5043691;28;20201;-72
2020/12/10 02:45:22;;;;;;;107.57;36.27;;;;;;;;;;5050859;28;20200;-72
2020/12/10 02:47:47;;;;;;;105.23;37.47;;;;;;;;;;5064874;28;20189;-72
2020/12/10 02:50:14;;;;;;;97.73;35.30;;;;;;;;;;5042581;28;20201;-72
2020/12/10 02:52:39;;;;;;;108.17;37.00;;;;;;;;;;5051312;28;20205;-72
2020/12/10 02:55:04;;;;;;;98.40;35.43;;;;;;;;;;5042155;28;20212;-72
2020/12/10 02:57:30;;;;;;;110.97;36.00;;;;;;;;;;5050757;28;20195;-72
2020/12/10 02:59:55;;;;;;;108.63;36.00;;;;;;;;;;5043751;28;20193;-72
2020/12/10 03:02:20;;;;;;;105.40;37.13;;;;;;;;;;5050900;28;20209;-72
2020/12/10 03:04:46;;;;;;;101.00;35.83;;;;;;;;;;5039794;28;20284;-72
2020/12/10 03:07:11;;;;;;;99.03;36.63;;;;;;;;;;5051592;28;20212;-72
2020/12/10 03:09:36;;;;;;;94.93;34.00;;;;;;;;;;5041063;28;20534;-72
2020/12/10 03:12:02;;;;;;;99.13;35.57;;;;;;;;;;5051428;28;20178;-72
2020/12/10 03:14:27;;;;;;;95.77;35.17;;;;;;;;;;5038383;28;20177;-72
2020/12/10 03:16:53;;;;;;;95.40;34.87;;;;;;;;;;5049874;28;20687;-72
2020/12/10 03:19:18;;;;;;;96.80;36.30;;;;;;;;;;5046151;28;20193;-72
2020/12/10 03:21:43;;;;;;;94.97;35.07;;;;;;;;;;5043250;28;20190;-72
2020/12/10 03:24:09;;;;;;;90.83;34.63;;;;;;;;;;5045037;28;20236;-72
2020/12/10 03:26:34;;;;;;;85.27;32.60;;;;;;;;;;5042097;28;20193;-72
2020/12/10 03:28:59;;;;;;;103.60;36.07;;;;;;;;;;5050586;28;20186;-72
2020/12/10 03:31:24;;;;;;;98.40;34.07;;;;;;;;;;5043790;28;20242;-72
2020/12/10 03:33:50;;;;;;;97.37;35.33;;;;;;;;;;5048107;28;20273;-72
2020/12/10 03:36:15;;;;;;;97.73;35.57;;;;;;;;;;5036707;28;20243;-72
2020/12/10 03:38:40;;;;;;;96.10;34.27;;;;;;;;;;5048107;28;20645;-72
2020/12/10 03:41:06;;;;;;;96.50;35.40;;;;;;;;;;5040856;28;20770;-72
2020/12/10 03:43:31;;;;;;;96.63;33.63;;;;;;;;;;5049171;28;20617;-72
2020/12/10 03:45:57;;;;;;;102.33;35.20;;;;;;;;;;5042461;28;20178;-72
2020/12/10 03:48:22;;;;;;;97.70;35.13;;;;;;;;;;5046151;28;20201;-72
2020/12/10 03:50:48;;;;;;;96.17;33.60;;;;;;;;;;5046407;28;20257;-72
2020/12/10 03:53:14;;;;;;;91.47;34.90;;;;;;;;;;5038991;28;20186;-72
2020/12/10 03:55:39;;;;;;;100.03;34.90;;;;;;;;;;5047877;28;20185;-72
2020/12/10 03:58:04;;;;;;;92.87;33.73;;;;;;;;;;5039327;28;20205;-72
2020/12/10 04:00:30;;;;;;;96.87;35.40;;;;;;;;;;5046269;28;20251;-72
2020/12/10 04:02:55;;;;;;;94.00;34.57;;;;;;;;;;5036917;28;20213;-72
2020/12/10 04:05:20;;;;;;;93.23;34.10;;;;;;;;;;5049997;28;20181;-72
2020/12/10 04:07:46;;;;;;;97.13;34.17;;;;;;;;;;5038386;28;20201;-72
2020/12/10 04:10:11;;;;;;;105.17;33.97;;;;;;;;;;5063513;28;20193;-71
2020/12/10 04:12:36;;;;;;;98.77;34.13;;;;;;;;;;5039856;28;20637;-71
2020/12/10 04:15:02;;;;;;;93.00;34.57;;;;;;;;;;5048053;28;20268;-71
2020/12/10 04:17:27;;;;;;;100.00;34.10;;;;;;;;;;5043826;28;20193;-71
2020/12/10 04:19:52;;;;;;;108.87;36.87;;;;;;;;;;5045240;28;20303;-72
2020/12/10 04:22:18;;;;;;;114.30;36.43;;;;;;;;;;5048032;28;20213;-72
2020/12/10 04:24:43;;;;;;;118.17;37.93;;;;;;;;;;5040005;28;20553;-72
2020/12/10 04:27:08;;;;;;;113.57;36.97;;;;;;;;;;5045850;28;20280;-72
2020/12/10 04:29:34;;;;;;;113.50;36.60;;;;;;;;;;5041067;28;20189;-72
2020/12/10 04:31:59;;;;;;;123.20;38.53;;;;;;;;;;5044094;28;20318;-71
2020/12/10 04:34:24;;;;;;;116.93;36.93;;;;;;;;;;5036261;28;20309;-71
2020/12/10 04:36:50;;;;;;;140.73;40.33;;;;;;;;;;5047847;28;20268;-71
2020/12/10 04:39:15;;;;;;;136.20;38.60;;;;;;;;;;5039840;28;20197;-71
2020/12/10 04:41:41;;;;;;;141.63;39.23;;;;;;;;;;5047461;28;20196;-72
2020/12/10 04:44:06;;;;;;;138.50;38.90;;;;;;;;;;5039688;28;20217;-71
2020/12/10 04:46:32;;;;;;;144.40;39.57;;;;;;;;;;5046486;28;20193;-71
2020/12/10 04:49:00;;;;;;;154.73;41.80;;;;;;;;;;5048432;28;20242;-71
2020/12/10 04:51:27;;;;;;;153.10;39.80;;;;;;;;;;5041534;28;20193;-72
2020/12/10 04:53:53;;;;;;;170.33;41.67;;;;;;;;;;5049447;28;20491;-72
2020/12/10 04:56:20;;;;;;;164.20;41.00;;;;;;;;;;5037914;28;20193;-72
2020/12/10 04:58:45;;;;;;;163.97;44.23;;;;;;;;;;5050879;28;20615;-72
2020/12/10 05:01:14;;;;;;;164.60;44.10;;;;;;;;;;5035158;28;20197;-72
2020/12/10 05:03:44;;;;;;;178.57;43.80;;;;;;;;;;5046635;28;20205;-72
2020/12/10 05:06:12;;;;;;;155.83;42.73;;;;;;;;;;5038762;28;20267;-72
2020/12/10 05:08:37;;;;;;;174.60;43.97;;;;;;;;;;5046934;28;20681;-72
2020/12/10 05:11:03;;;;;;;154.90;44.13;;;;;;;;;;5039738;28;20208;-71
2020/12/10 05:13:28;;;;;;;156.67;42.40;;;;;;;;;;5051156;28;20684;-72
2020/12/10 05:15:54;;;;;;;157.83;42.40;;;;;;;;;;5038329;28;20208;-72
2020/12/10 05:18:19;;;;;;;166.13;45.73;;;;;;;;;;5047522;28;20185;-72
2020/12/10 05:20:50;;;;;;;143.43;41.30;;;;;;;;;;5038932;28;20216;-72
2020/12/10 05:23:27;;;;;;;149.63;41.67;;;;;;;;;;5047644;28;20319;-72
2020/12/10 05:25:53;;;;;;;135.43;39.00;;;;;;;;;;5034768;28;20177;-72
2020/12/10 05:28:21;;;;;;;162.27;43.30;;;;;;;;;;5051813;28;20344;-71
2020/12/10 05:31:01;;;;;;;150.70;40.83;;;;;;;;;;5044927;28;20185;-71
2020/12/10 05:33:27;;;;;;;147.17;40.33;;;;;;;;;;5040090;28;20256;-71
2020/12/10 05:36:06;;;;;;;147.73;42.13;;;;;;;;;;5047217;28;20236;-72
2020/12/10 05:38:32;;;;;;;151.53;39.83;;;;;;;;;;5035599;28;20197;-72
2020/12/10 05:41:16;;;;;;;151.60;41.07;;;;;;;;;;5045375;28;20188;-72
2020/12/10 05:43:42;;;;;;;132.30;38.57;;;;;;;;;;5034855;28;20297;-71
2020/12/10 05:46:14;;;;;;;141.63;39.33;;;;;;;;;;5045777;28;20265;-72
2020/12/10 05:48:40;;;;;;;131.17;38.20;;;;;;;;;;5039068;28;20583;-72
2020/12/10 05:51:11;;;;;;;148.73;41.23;;;;;;;;;;5047614;28;20216;-72
2020/12/10 05:53:40;;;;;;;144.23;40.90;;;;;;;;;;5035129;28;20189;-72
2020/12/10 05:56:09;;;;;;;141.30;40.17;;;;;;;;;;5047882;28;20186;-72
2020/12/10 05:58:53;;;;;;;155.93;41.53;;;;;;;;;;5038500;28;20196;-72
2020/12/10 06:01:33;;;;;;;144.90;39.53;;;;;;;;;;5045469;28;20235;-71
2020/12/10 06:03:59;;;;;;;152.83;39.60;;;;;;;;;;5036823;28;20696;-72
2020/12/10 06:06:27;;;;;;;161.00;40.73;;;;;;;;;;5044640;28;20251;-72
2020/12/10 06:08:59;;;;;;;159.77;41.40;;;;;;;;;;5037366;28;20438;-72
2020/12/10 06:11:25;;;;;;;150.47;40.57;;;;;;;;;;5045908;28;20189;-71
2020/12/10 06:13:59;;;;;;;155.00;39.87;;;;;;;;;;5037203;28;20185;-71
2020/12/10 06:16:24;;;;;;;162.83;43.40;;;;;;;;;;5044434;28;20690;-71
2020/12/10 06:19:01;;;;;;;173.17;44.73;;;;;;;;;;5034718;28;20189;-71
2020/12/10 06:21:46;;;;;;;159.17;42.37;;;;;;;;;;5044284;28;20208;-71
2020/12/10 06:24:24;;;;;;;154.60;41.47;;;;;;;;;;5037184;28;20248;-71
2020/12/10 06:26:50;;;;;;;166.13;42.10;;;;;;;;;;5043228;28;20281;-71
2020/12/10 06:29:26;;;;;;;162.77;42.33;;;;;;;;;;5038290;28;20547;-72
2020/12/10 06:32:13;;;;;;;159.87;41.90;;;;;;;;;;5044511;28;20200;-71
2020/12/10 06:34:55;;;;;;;142.77;40.87;;;;;;;;;;5040123;28;20225;-72
2020/12/10 06:37:29;;;;;;;152.03;41.40;;;;;;;;;;5049146;28;20739;-72
2020/12/10 06:39:59;;;;;;;157.83;44.00;;;;;;;;;;5042260;28;20192;-72
2020/12/10 06:42:25;;;;;;;162.97;43.73;;;;;;;;;;5046826;28;20245;-71
2020/12/10 06:44:51;;;;;;;169.47;43.43;;;;;;;;;;5052811;28;20200;-71
2020/12/10 06:47:18;;;;;;;147.63;41.97;;;;;;;;;;5056439;28;20189;-72
2020/12/10 06:49:43;;;;;;;145.80;41.43;;;;;;;;;;5051910;28;20197;-72
2020/12/10 06:52:19;;;;;;;157.57;41.80;;;;;;;;;;5040047;28;20251;-72
2020/12/10 06:55:07;;;;;;;138.37;39.90;;;;;;;;;;5044521;28;20190;-71
2020/12/10 06:57:53;;;;;;;137.83;39.27;;;;;;;;;;5040612;28;20660;-72
2020/12/10 07:00:34;;;;;;;148.87;41.63;;;;;;;;;;5046000;28;20193;-71
2020/12/10 07:03:16;;;;;;;134.00;39.13;;;;;;;;;;5037148;28;20612;-72
2020/12/10 07:05:42;;;;;;;132.83;38.23;;;;;;;;;;5047624;28;20185;-71
2020/12/10 07:08:08;;;;;;;127.43;37.53;;;;;;;;;;5039353;28;20568;-71
2020/12/10 07:10:42;;;;;;;130.40;39.17;;;;;;;;;;5048179;28;20199;-72
2020/12/10 07:13:07;;;;;;;120.93;35.40;;;;;;;;;;5039885;28;20192;-72
2020/12/10 07:15:33;;;;;;;123.93;36.73;;;;;;;;;;5045864;28;20193;-71
2020/12/10 07:18:01;;;;;;;135.87;38.93;;;;;;;;;;5039367;28;20193;-71
2020/12/10 07:20:28;;;;;;;137.63;39.77;;;;;;;;;;5049755;28;20201;-71
2020/12/10 07:22:53;;;;;;;150.83;39.57;;;;;;;;;;5031138;28;20286;-71
2020/12/10 07:25:20;;;;;;;154.73;40.93;;;;;;;;;;5043995;28;20660;-71
2020/12/10 07:27:46;;;;;;;144.87;42.20;;;;;;;;;;5037231;28;20173;-72
2020/12/10 07:30:13;;;;;;;142.57;38.80;;;;;;;;;;5048647;28;20182;-71
2020/12/10 07:32:39;;;;;;;131.77;39.30;;;;;;;;;;5037999;28;20281;-71
2020/12/10 07:35:05;;;;;;;124.90;38.57;;;;;;;;;;5047398;28;20177;-71
2020/12/10 07:37:32;;;;;;;123.10;37.87;;;;;;;;;;5047047;28;20613;-71
2020/12/10 07:40:09;;;;;;;125.93;37.17;;;;;;;;;;5031575;28;20290;-71
2020/12/10 07:42:35;;;;;;;131.50;37.60;;;;;;;;;;5046283;28;20200;-71
2020/12/10 07:45:14;;;;;;;129.17;38.03;;;;;;;;;;5034327;28;20526;-72
2020/12/10 07:47:40;;;;;;;132.87;39.77;;;;;;;;;;5043884;28;20182;-71
2020/12/10 07:50:21;;;;;;;121.63;37.07;;;;;;;;;;5036846;28;20232;-71
2020/12/10 07:52:48;;;;;;;116.23;36.67;;;;;;;;;;5045071;28;20549;-71
2020/12/10 07:55:17;;;;;;;118.23;35.57;;;;;;;;;;5038244;28;20396;-71
2020/12/10 07:58:06;;;;;;;118.77;36.67;;;;;;;;;;5050785;28;20184;-71
2020/12/10 08:00:32;;;;;;;110.97;33.10;;;;;;;;;;5039460;28;20652;-71
2020/12/10 08:03:27;;;;;;;119.60;36.03;;;;;;;;;;5050577;28;20205;-72
2020/12/10 08:06:02;;;;;;;110.10;33.40;;;;;;;;;;5038838;28;20239;-72
2020/12/10 08:08:33;;;;;;;127.20;36.60;;;;;;;;;;5048279;28;20211;-72
2020/12/10 08:11:07;;;;;;;117.80;37.33;;;;;;;;;;5038936;28;20555;-72
2020/12/10 08:13:32;;;;;;;117.30;37.20;;;;;;;;;;5048916;28;20207;-72
2020/12/10 08:16:06;;;;;;;123.77;38.53;;;;;;;;;;5036968;28;20193;-71
2020/12/10 08:18:32;;;;;;;111.90;36.63;;;;;;;;;;5049134;28;20269;-72
2020/12/10 08:20:59;;;;;;;115.97;36.30;;;;;;;;;;5036575;28;20268;-72
2020/12/10 08:23:24;;;;;;;129.40;39.13;;;;;;;;;;5046890;28;20206;-72
2020/12/10 08:26:08;;;;;;;117.17;38.17;;;;;;;;;;5038164;28;20185;-72
2020/12/10 08:28:34;;;;;;;112.40;35.80;;;;;;;;;;5047309;28;20205;-71
2020/12/10 08:30:59;;;;;;;112.43;37.83;;;;;;;;;;5036770;28;20231;-72
2020/12/10 08:33:35;;;;;;;116.70;37.77;;;;;;;;;;5042108;28;20257;-72
2020/12/10 08:36:00;;;;;;;115.07;37.50;;;;;;;;;;5035721;28;20250;-71
2020/12/10 08:38:26;;;;;;;111.53;37.20;;;;;;;;;;5042422;28;20181;-71
2020/12/10 08:40:59;;;;;;;111.50;37.53;;;;;;;;;;5041674;28;20189;-71
2020/12/10 08:43:25;;;;;;;118.03;38.27;;;;;;;;;;5045528;28;20217;-71
2020/12/10 08:45:51;;;;;;;116.37;38.47;;;;;;;;;;5045807;28;20189;-71
2020/12/10 08:48:25;;;;;;;125.63;38.73;;;;;;;;;;5036329;28;20641;-71
2020/12/10 08:50:52;;;;;;;117.23;39.10;;;;;;;;;;5045101;28;20307;-71
2020/12/10 08:53:17;;;;;;;119.40;38.93;;;;;;;;;;5037308;28;20634;-71
2020/12/10 08:55:46;;;;;;;120.97;38.70;;;;;;;;;;5046494;28;20200;-71
2020/12/10 08:58:23;;;;;;;120.43;38.47;;;;;;;;;;5034843;28;20185;-71
2020/12/10 09:00:48;;;;;;;131.20;39.17;;;;;;;;;;5044642;28;20568;-71
2020/12/10 09:03:14;;;;;;;122.90;37.97;;;;;;;;;;5033088;28;20204;-71
2020/12/10 09:05:40;;;;;;;125.07;38.03;;;;;;;;;;5047406;28;20196;-71
2020/12/10 09:08:06;;;;;;;151.37;40.73;;;;;;;;;;5035416;28;20205;-71
2020/12/10 09:10:31;;;;;;;135.03;41.10;;;;;;;;;;5045053;28;21587;-71
2020/12/10 09:12:58;;;;;;;126.50;38.70;;;;;;;;;;5037979;28;20186;-71
2020/12/10 09:15:24;;;;;;;122.73;38.57;;;;;;;;;;5047371;28;20197;-71
2020/12/10 09:17:49;;;;;;;124.53;38.83;;;;;;;;;;5043186;28;20177;-71
2020/12/10 09:20:15;;;;;;;135.67;38.50;;;;;;;;;;5033970;28;20181;-71
2020/12/10 09:22:41;;;;;;;133.57;40.67;;;;;;;;;;5046539;28;20197;-71
2020/12/10 09:25:06;;;;;;;130.57;42.50;;;;;;;;;;5040065;28;20542;-71
2020/12/10 09:27:35;;;;;;;112.90;38.10;;;;;;;;;;5048625;28;20197;-71
2020/12/10 09:30:01;;;;;;;122.07;39.57;;;;;;;;;;5037532;28;20189;-71
2020/12/10 09:32:33;;;;;;;110.93;38.17;;;;;;;;;;5047592;28;20254;-71
2020/12/10 09:34:58;;;;;;;117.87;39.17;;;;;;;;;;5039973;28;20249;-71
2020/12/10 09:37:23;;;;;;;122.97;40.03;;;;;;;;;;5047403;28;20177;-71
2020/12/10 09:39:49;;;;;;;109.77;38.33;;;;;;;;;;5039678;28;20193;-71
2020/12/10 09:42:14;;;;;;;116.60;38.47;;;;;;;;;;5046433;28;20173;-71
2020/12/10 09:44:39;;;;;;;116.70;39.20;;;;;;;;;;5040296;28;20211;-71
2020/12/10 09:47:06;;;;;;;111.73;37.60;;;;;;;;;;5044975;28;20231;-71
2020/12/10 09:49:32;;;;;;;119.37;39.63;;;;;;;;;;5045165;28;20185;-71
2020/12/10 09:52:00;;;;;;;120.40;40.00;;;;;;;;;;5046057;28;20727;-71
2020/12/10 09:59:44;;;;;;;111.33;39.53;;;;;;;;;;5045677;28;20185;-71
2020/12/10 10:02:10;;;;;;;116.43;39.50;;;;;;;;;;5043485;28;20186;-71
2020/12/10 10:04:35;;;;;;;112.40;38.80;;;;;;;;;;5043234;28;20221;-71
2020/12/10 10:07:05;;;;;;;104.13;37.47;;;;;;;;;;5041722;28;20197;-71
2020/12/10 10:09:31;;;;;;;106.67;38.90;;;;;;;;;;5051862;28;20189;-71
2020/12/10 10:11:56;;;;;;;101.53;37.17;;;;;;;;;;5039922;28;20190;-71
2020/12/10 10:14:21;;;;;;;107.23;40.20;;;;;;;;;;5048724;28;20182;-71
2020/12/10 10:16:47;;;;;;;108.07;38.77;;;;;;;;;;5040601;28;20188;-71
2020/12/10 10:19:12;;;;;;;108.57;38.23;;;;;;;;;;5047944;28;20272;-71
2020/12/10 10:21:37;;;;;;;104.73;38.40;;;;;;;;;;5044581;28;20235;-71
2020/12/10 10:24:03;;;;;;;101.47;38.33;;;;;;;;;;5051409;28;20651;-71
2020/12/10 10:26:28;;;;;;;109.57;38.60;;;;;;;;;;5041003;28;20231;-71
2020/12/10 10:28:54;;;;;;;100.33;37.47;;;;;;;;;;5051216;28;20212;-71
2020/12/10 10:31:20;;;;;;;104.87;37.83;;;;;;;;;;5045557;28;20190;-72
2020/12/10 10:33:45;;;;;;;107.53;37.67;;;;;;;;;;5038208;28;20224;-72
2020/12/10 10:36:11;;;;;;;100.97;37.70;;;;;;;;;;5051953;28;20265;-72
2020/12/10 10:38:36;;;;;;;96.93;37.00;;;;;;;;;;5036541;28;20679;-72
2020/12/10 10:41:02;;;;;;;98.20;36.53;;;;;;;;;;5048422;28;20173;-72
2020/12/10 10:43:28;;;;;;;91.90;36.87;;;;;;;;;;5041546;28;20700;-72
2020/12/10 10:45:54;;;;;;;85.73;34.53;;;;;;;;;;5048095;28;20189;-72
2020/12/10 10:48:19;;;;;;;89.53;34.93;;;;;;;;;;5040155;28;20185;-72
2020/12/10 10:50:44;;;;;;;80.27;32.80;;;;;;;;;;5050496;28;20227;-71
2020/12/10 10:53:10;;;;;;;83.13;34.17;;;;;;;;;;5040730;28;20239;-72
2020/12/10 10:55:35;;;;;;;83.37;34.40;;;;;;;;;;5049191;28;20185;-72
2020/12/10 10:58:01;;;;;;;84.47;34.43;;;;;;;;;;5046638;28;20534;-72
2020/12/10 11:00:26;;;;;;;83.00;34.83;;;;;;;;;;5044458;28;20182;-72
2020/12/10 11:02:51;;;;;;;86.57;35.23;;;;;;;;;;5048235;28;20652;-72
2020/12/10 11:05:17;;;;;;;87.67;35.37;;;;;;;;;;5042015;28;20600;-72
2020/12/10 11:07:43;;;;;;;88.67;35.90;;;;;;;;;;5046345;28;20213;-72
2020/12/10 11:10:09;;;;;;;88.77;36.30;;;;;;;;;;5039993;28;20193;-72
2020/12/10 11:12:35;;;;;;;88.17;35.87;;;;;;;;;;5047441;28;20198;-72
2020/12/10 11:15:00;;;;;;;87.47;35.97;;;;;;;;;;5042117;28;20205;-72
2020/12/10 11:17:26;;;;;;;85.83;34.43;;;;;;;;;;5065671;28;20632;-72
2020/12/10 11:19:51;;;;;;;79.47;33.73;;;;;;;;;;5039812;28;20552;-72
2020/12/10 11:22:17;;;;;;;86.70;35.53;;;;;;;;;;5047408;28;20267;-72
2020/12/10 11:24:42;;;;;;;85.30;35.47;;;;;;;;;;5039325;28;20186;-72
2020/12/10 11:27:07;;;;;;;84.00;35.50;;;;;;;;;;5048481;28;20198;-72
2020/12/10 11:29:33;;;;;;;83.53;35.43;;;;;;;;;;5049494;28;20182;-72
2020/12/10 11:31:58;;;;;;;84.60;36.10;;;;;;;;;;5039865;28;20188;-72
2020/12/10 11:34:24;;;;;;;93.53;36.70;;;;;;;;;;5049917;28;20253;-72
2020/12/10 11:36:50;;;;;;;87.13;36.37;;;;;;;;;;5044148;28;20185;-72
2020/12/10 11:39:15;;;;;;;89.20;35.73;;;;;;;;;;5049945;28;20174;-73
2020/12/10 11:41:41;;;;;;;92.63;37.13;;;;;;;;;;5043267;28;20191;-72
2020/12/10 11:44:06;;;;;;;90.37;35.83;;;;;;;;;;5046812;28;20204;-71
2020/12/10 11:46:32;;;;;;;92.10;37.67;;;;;;;;;;5040155;28;20535;-72
2020/12/10 11:48:57;;;;;;;90.10;38.10;;;;;;;;;;5049916;28;20564;-72
2020/12/10 11:51:23;;;;;;;91.47;38.20;;;;;;;;;;5040765;28;20202;-72
2020/12/10 11:53:48;;;;;;;85.23;36.30;;;;;;;;;;5049696;28;20696;-72
2020/12/10 11:56:15;;;;;;;91.80;36.77;;;;;;;;;;5036869;28;20189;-72
2020/12/10 11:58:40;;;;;;;89.03;37.07;;;;;;;;;;5042210;28;20257;-72
2020/12/10 12:01:05;;;;;;;86.10;37.53;;;;;;;;;;5049801;28;20827;-72
2020/12/10 12:03:30;;;;;;;83.33;34.87;;;;;;;;;;5039176;28;20240;-72
2020/12/10 12:05:56;;;;;;;91.30;37.67;;;;;;;;;;5050380;28;20272;-72
2020/12/10 12:08:25;;;;;;;95.53;38.33;;;;;;;;;;5039149;28;20204;-72
2020/12/10 12:10:52;;;;;;;89.87;37.83;;;;;;;;;;5048273;28;20185;-72
2020/12/10 12:13:17;;;;;;;87.30;38.00;;;;;;;;;;5039642;28;20501;-72
2020/12/10 12:15:42;;;;;;;85.10;37.03;;;;;;;;;;5047641;28;20190;-72
2020/12/10 12:18:08;;;;;;;85.63;36.80;;;;;;;;;;5039220;28;20181;-72
2020/12/10 12:20:33;;;;;;;83.47;34.83;;;;;;;;;;5048010;28;20189;-72
2020/12/10 12:22:58;;;;;;;86.13;38.03;;;;;;;;;;5040088;28;20511;-72
2020/12/10 12:25:24;;;;;;;86.87;36.87;;;;;;;;;;5048776;28;20269;-72
2020/12/10 12:27:49;;;;;;;88.23;38.30;;;;;;;;;;5040497;28;20193;-72
2020/12/10 12:30:14;;;;;;;80.00;35.43;;;;;;;;;;5047358;28;20220;-72
2020/12/10 12:32:40;;;;;;;78.73;35.60;;;;;;;;;;5047105;28;20185;-72
2020/12/10 12:35:05;;;;;;;85.93;37.67;;;;;;;;;;5038116;28;20193;-72
2020/12/10 12:37:30;;;;;;;82.00;35.87;;;;;;;;;;5048049;28;20196;-72
2020/12/10 12:39:56;;;;;;;83.77;37.80;;;;;;;;;;5041632;28;20649;-72
2020/12/10 12:42:21;;;;;;;81.57;36.43;;;;;;;;;;5048468;28;20212;-72
2020/12/10 12:44:47;;;;;;;79.30;36.97;;;;;;;;;;5038005;28;20193;-72
2020/12/10 12:47:12;;;;;;;77.07;34.63;;;;;;;;;;5047849;28;20177;-72
2020/12/10 12:49:39;;;;;;;81.53;34.73;;;;;;;;;;5034374;28;20548;-72
2020/12/10 12:52:04;;;;;;;84.90;36.03;;;;;;;;;;5047517;28;20589;-72
2020/12/10 12:54:30;;;;;;;89.53;37.53;;;;;;;;;;5035591;28;20185;-71
2020/12/10 12:56:55;;;;;;;83.03;35.20;;;;;;;;;;5045219;28;20170;-71
2020/12/10 12:59:20;;;;;;;82.53;36.90;;;;;;;;;;5036492;28;20541;-72
2020/12/10 13:01:46;;;;;;;84.67;36.87;;;;;;;;;;5048572;28;20172;-72
2020/12/10 13:04:14;;;;;;;86.43;37.33;;;;;;;;;;5046154;28;20205;-72
2020/12/10 13:06:46;;;;;;;88.13;37.03;;;;;;;;;;5034085;28;20213;-72
2020/12/10 13:09:12;;;;;;;88.33;38.93;;;;;;;;;;5047755;28;20182;-72
2020/12/10 13:11:38;;;;;;;90.00;38.77;;;;;;;;;;5039181;28;20189;-72
2020/12/10 13:14:04;;;;;;;89.30;38.60;;;;;;;;;;5046728;28;20177;-72
2020/12/10 13:16:30;;;;;;;80.00;38.67;;;;;;;;;;5037266;28;20204;-72
2020/12/10 13:18:55;;;;;;;90.03;39.07;;;;;;;;;;5042694;28;20185;-72
2020/12/10 13:21:24;;;;;;;85.90;38.00;;;;;;;;;;5039277;28;20243;-72
2020/12/10 13:23:49;;;;;;;82.80;38.60;;;;;;;;;;5040546;28;20205;-71
2020/12/10 13:26:15;;;;;;;85.57;37.23;;;;;;;;;;5038333;28;20189;-72
2020/12/10 13:28:44;;;;;;;87.33;39.03;;;;;;;;;;5044644;28;20366;-72
2020/12/10 13:31:09;;;;;;;84.50;36.80;;;;;;;;;;5030599;28;20656;-72
2020/12/10 13:33:35;;;;;;;83.33;36.80;;;;;;;;;;5045058;28;20222;-72
2020/12/10 13:36:00;;;;;;;86.60;38.80;;;;;;;;;;5037803;28;20209;-71
2020/12/10 13:38:25;;;;;;;87.70;39.00;;;;;;;;;;5047020;28;20283;-72
2020/12/10 13:40:51;;;;;;;92.13;40.40;;;;;;;;;;5052967;28;20193;-72
2020/12/10 13:43:16;;;;;;;99.60;40.47;;;;;;;;;;5041832;28;20240;-72
2020/12/10 13:45:41;;;;;;;93.17;38.27;;;;;;;;;;5049584;28;20616;-72
2020/12/10 13:48:07;;;;;;;92.70;38.53;;;;;;;;;;5041270;28;20225;-71
2020/12/10 13:50:33;;;;;;;96.53;40.80;;;;;;;;;;5051255;28;20659;-72
2020/12/10 13:52:58;;;;;;;98.77;40.87;;;;;;;;;;5037668;28;20185;-72
2020/12/10 13:55:23;;;;;;;89.10;38.87;;;;;;;;;;5049029;28;20663;-72
2020/12/10 13:57:49;;;;;;;100.23;40.90;;;;;;;;;;5041377;28;20181;-72
2020/12/10 14:00:14;;;;;;;87.33;38.57;;;;;;;;;;5052328;28;20191;-72
2020/12/10 14:02:39;;;;;;;96.17;38.83;;;;;;;;;;5020260;28;50968;-72
2020/12/10 14:05:05;;;;;;;93.97;39.40;;;;;;;;;;5025581;28;20222;-72
2020/12/10 14:07:30;;;;;;;86.70;37.73;;;;;;;;;;5015206;28;20206;-72
2020/12/10 14:09:56;;;;;;;100.40;40.70;;;;;;;;;;5022899;28;20256;-72
2020/12/10 14:12:21;;;;;;;96.00;39.83;;;;;;;;;;5023726;28;20622;-72
2020/12/10 14:14:46;;;;;;;100.33;40.23;;;;;;;;;;5010292;28;20190;-72